Impacts TAF Board INFO
FOR SITUATIONAL AWARENESS. NOT TO BE USED FOR FLIGHT PLANNING PURPOSES.
IDs:

KIAH - Houston/Bush Intl, TX, US

Issued at 1126 UTC 16 Jan 2018
Updated at 1500 UTC 16 Jan 2018
Potential Impact None Slight Moderate High
Time1453Z 16/15Z 16/16Z 16/17Z 16/18Z 16/19Z 16/20Z 16/21Z 16/22Z 16/23Z 17/00Z 17/01Z 17/02Z 17/03Z>>
Type OBS PRVL PRVL PRVL PRVL PRVL PRVL PRVL PRVL PRVL PRVL PRVL PRVL PRVL
VIS 1 5 5 5 5 5 >6 >6 >6 >6 >6 >6 >6 >6
CIG 13 12 15 15 15 15 17 17 17 50 50 50 50 50
Cover OVC OVC OVC OVC OVC OVC OVC OVC OVC OVC OVC OVC OVC OVC
FltCat IFR MVFR MVFR MVFR MVFR MVFR MVFR MVFR MVFR VFR VFR VFR VFR VFR
WX -FZRA PL BR -FZRA SN PL BR -SN -PL BR -SN -PL BR -SN -PL BR -SN -PL BR -SN -SN -SN -- -- -- -- --
WDir 350 350 360 360 360 360 360 360 360 350 350 350 350 350
WSpd 15 17 17 17 17 17 16 16 16 12 12 12 12 12
WGst 24 27 27 27 27 27 -- -- -- -- -- -- -- --

Raw TAF
KIAH 161126Z 1612/1718 35015G25KT 6SM -RAPL BR BKN008 OVC012
  FM161400 35017G27KT 5SM -FZRASNPL BR SCT008 OVC012
  FM161600 36017G27KT 5SM -SNPL BR OVC015
  FM162000 36016KT P6SM -SN BKN017 OVC022
  FM162300 35012KT P6SM OVC050
  FM170700 35006KT P6SM SKC
  FM171500 02010KT P6SM SKC


Raw METAR
KIAH 161453Z 35015G24KT 1SM -FZRAPL BR SCT007 OVC013 M01/M02 A3063 RMK AO2 PK WND 01031/1416 TWR VIS 1 1/4 FZDZB17E36FZRAB36SNE36 SLP371 P0000 60001 I1000 I3002 T10111022 53033 $
KIAH 161436Z 36017G24KT 6SM -FZRAPL BR SCT007 OVC013 M02/M03 A3061 RMK AO2 PK WND 01031/1416 FZDZB17E36FZRAB36SNE36 P0000 I1000 T10171028 $
KIAH 161417Z 01024G31KT 3SM -FZDZSNPL BR SCT007 OVC013 M01/M03 A3060 RMK AO2 PK WND 01031/1416 FZDZB17 P0000 I1000 T10111028 $
KIAH 161353Z 01019G27KT 3SM -SNPL BR SCT007 OVC011 M01/M02 A3059 RMK AO2 PK WND 36027/1330 SNE13B41PLB41 SLP359 P0001 I1000 T10111022 $
KIAH 161342Z 36021G27KT 4SM -SNPL BR FEW007 BKN013 OVC018 M01/M02 A3058 RMK AO2 PK WND 36027/1330 SNE13B41PLB41 P0001 I1000 T10061022 $
KIAH 161253Z 36020G26KT 3SM -SN BR FEW007 BKN010 OVC020 00/M01 A3056 RMK AO2 PK WND 34032/1216 RAE14DZB14E29SNB29 SLP348 P0000 I1002 T00001011 $
KIAH 161233Z 36015KT 3SM -SN BR SCT007 BKN012 OVC029 00/M01 A3055 RMK AO2 PK WND 34032/1216 RAE14DZB14E29SNB29 P0000 I1002 T00001011 $
KIAH 161153Z 36019G31KT 7SM -RA BKN008 BKN014 OVC021 01/M01 A3053 RMK AO2 PK WND 36031/1149 RAE1058B14SNB1058E14 SLP339 P0001 60017 70017 T00061006 10122 20006 51037 $

METAR Board
Radar Display
Forecast Discussion

FOR SITUATIONAL AWARENESS. NOT TO BE USED FOR FLIGHT PLANNING PURPOSES.